Time;durP1;ratioP1;P1;durP2;ratioP2;P2;SDS_P1;SDS_P2;PMS_P1;PMS_P2;Temp;Humidity;BMP_temperature;BMP_pressure;BME280_temperature;BME280_humidity;BME280_pressure;Samples;Min_cycle;Max_cycle;Signal;HPM_P1;HPM_P2
2023/06/23 00:01:03;;;;;;;15.02;13.52;;;;;;;;;;5081667;28;20051;-77
2023/06/23 00:03:30;;;;;;;16.20;12.93;;;;;;;;;;5080855;28;20094;-76
2023/06/23 00:05:56;;;;;;;14.70;12.50;;;;;;;;;;5077993;28;20105;-75
2023/06/23 00:08:21;;;;;;;19.65;14.38;;;;;;;;;;5080945;28;20098;-75
2023/06/23 00:10:48;;;;;;;18.92;14.48;;;;;;;;;;5077685;28;20024;-76
2023/06/23 00:13:13;;;;;;;18.52;14.20;;;;;;;;;;5080003;28;22002;-74
2023/06/23 00:15:39;;;;;;;15.15;13.68;;;;;;;;;;5079321;28;20027;-75
2023/06/23 00:18:04;;;;;;;15.85;13.50;;;;;;;;;;5077747;28;20039;-74
2023/06/23 00:20:30;;;;;;;30.35;17.88;;;;;;;;;;5078830;28;20028;-74
2023/06/23 00:22:55;;;;;;;23.73;16.15;;;;;;;;;;5079298;28;20130;-74
2023/06/23 00:25:21;;;;;;;16.60;14.25;;;;;;;;;;5081084;28;20077;-74
2023/06/23 00:27:46;;;;;;;15.48;13.98;;;;;;;;;;5079658;28;20024;-77
2023/06/23 00:30:12;;;;;;;14.35;12.88;;;;;;;;;;5079133;28;20362;-74
2023/06/23 00:32:38;;;;;;;16.02;13.95;;;;;;;;;;5079541;28;20198;-77
2023/06/23 00:35:03;;;;;;;21.30;16.25;;;;;;;;;;5081608;28;20031;-74
2023/06/23 00:37:29;;;;;;;16.30;13.48;;;;;;;;;;5079701;28;20028;-74
2023/06/23 00:39:55;;;;;;;25.13;17.55;;;;;;;;;;5079965;28;20094;-73
2023/06/23 00:42:21;;;;;;;20.98;16.30;;;;;;;;;;5081069;28;20403;-78
2023/06/23 00:44:46;;;;;;;19.20;14.15;;;;;;;;;;5079637;28;20433;-74
2023/06/23 00:47:13;;;;;;;16.52;12.75;;;;;;;;;;5083357;28;20044;-75
2023/06/23 00:49:39;;;;;;;16.90;11.27;;;;;;;;;;5083727;28;20024;-74
2023/06/23 00:52:07;;;;;;;12.20;10.85;;;;;;;;;;5082178;28;20043;-74
2023/06/23 00:54:35;;;;;;;13.18;11.77;;;;;;;;;;5082689;28;20036;-75
2023/06/23 00:57:01;;;;;;;15.32;10.73;;;;;;;;;;5084187;28;20043;-73
2023/06/23 00:59:28;;;;;;;11.68;10.40;;;;;;;;;;5080523;28;20085;-75
2023/06/23 01:01:57;;;;;;;12.60;11.20;;;;;;;;;;5082963;28;20126;-74
2023/06/23 01:04:22;;;;;;;;;;;;;;;;;;5085172;28;20048;-75
2023/06/23 01:07:06;;;;;;;16.00;12.63;;;;;;;;;;5083762;28;19977;-74
2023/06/23 01:09:37;;;;;;;14.93;11.35;;;;;;;;;;5081460;28;20016;-76
2023/06/23 01:12:12;;;;;;;14.32;12.52;;;;;;;;;;5081239;28;20079;-74
2023/06/23 01:14:44;;;;;;;14.30;12.65;;;;;;;;;;5079863;28;20047;-77
2023/06/23 01:17:11;;;;;;;15.45;12.20;;;;;;;;;;5081383;28;20031;-76
2023/06/23 01:19:49;;;;;;;13.40;12.13;;;;;;;;;;5081054;28;20433;-77
2023/06/23 01:22:24;;;;;;;12.93;11.02;;;;;;;;;;5082062;28;20017;-74
2023/06/23 01:24:55;;;;;;;14.88;12.27;;;;;;;;;;5081725;28;20428;-75
2023/06/23 01:27:23;;;;;;;13.23;11.80;;;;;;;;;;5081106;28;20023;-74
2023/06/23 01:29:50;;;;;;;34.03;17.73;;;;;;;;;;5082989;28;20099;-75
2023/06/23 01:32:26;;;;;;;29.75;17.60;;;;;;;;;;5082029;28;20020;-75
2023/06/23 01:34:54;;;;;;;31.58;18.10;;;;;;;;;;5083561;28;20020;-77
2023/06/23 01:37:28;;;;;;;28.23;16.33;;;;;;;;;;5082558;28;20258;-74
2023/06/23 01:39:57;;;;;;;22.38;14.07;;;;;;;;;;5082760;28;20027;-76
2023/06/23 01:42:28;;;;;;;19.23;14.27;;;;;;;;;;5082611;28;20095;-76
2023/06/23 01:44:55;;;;;;;25.88;16.95;;;;;;;;;;5081782;28;20036;-74
2023/06/23 01:47:25;;;;;;;26.38;17.10;;;;;;;;;;5079071;28;20032;-74
2023/06/23 01:49:51;;;;;;;17.52;13.27;;;;;;;;;;5082348;28;20316;-73
2023/06/23 01:52:17;;;;;;;15.60;12.27;;;;;;;;;;5079054;28;20683;-74
2023/06/23 01:54:43;;;;;;;14.10;12.68;;;;;;;;;;5083425;28;20028;-73
2023/06/23 01:57:11;;;;;;;26.88;17.95;;;;;;;;;;5080499;28;20032;-74
2023/06/23 01:59:37;;;;;;;35.13;21.67;;;;;;;;;;5083837;28;20044;-79
2023/06/23 02:02:02;;;;;;;29.20;18.05;;;;;;;;;;5081328;28;20038;-75
2023/06/23 02:04:29;;;;;;;28.52;18.83;;;;;;;;;;5081833;28;20024;-76
2023/06/23 02:06:55;;;;;;;32.70;18.88;;;;;;;;;;5082155;28;20060;-79
2023/06/23 02:09:25;;;;;;;22.98;14.45;;;;;;;;;;5081240;28;20062;-73
2023/06/23 02:11:51;;;;;;;13.20;11.88;;;;;;;;;;5079965;28;20110;-74
2023/06/23 02:14:18;;;;;;;17.02;13.63;;;;;;;;;;5080371;28;20812;-74
2023/06/23 02:16:43;;;;;;;18.20;14.05;;;;;;;;;;5082511;28;20067;-74
2023/06/23 02:19:09;;;;;;;18.00;13.77;;;;;;;;;;5083160;28;20109;-75
2023/06/23 02:21:35;;;;;;;19.00;13.43;;;;;;;;;;5081041;28;20020;-77
2023/06/23 02:24:03;;;;;;;19.35;15.38;;;;;;;;;;5082938;28;20024;-76
2023/06/23 02:26:29;;;;;;;24.53;17.23;;;;;;;;;;5082006;28;20446;-76
2023/06/23 02:28:54;;;;;;;17.90;13.73;;;;;;;;;;5079695;28;20028;-76
2023/06/23 02:31:23;;;;;;;16.85;13.88;;;;;;;;;;5083234;28;20434;-76
2023/06/23 02:33:49;;;;;;;15.77;13.07;;;;;;;;;;5082514;28;20035;-76
2023/06/23 02:36:19;;;;;;;17.20;14.25;;;;;;;;;;5082290;28;20040;-75
2023/06/23 02:38:47;;;;;;;19.52;14.20;;;;;;;;;;5081590;28;20028;-74
2023/06/23 02:41:14;;;;;;;15.93;13.15;;;;;;;;;;5078962;28;20453;-78
2023/06/23 02:43:51;;;;;;;14.68;12.45;;;;;;;;;;5082084;28;20461;-76
2023/06/23 02:46:21;;;;;;;14.45;13.13;;;;;;;;;;5079805;28;20046;-75
2023/06/23 02:48:48;;;;;;;19.25;14.68;;;;;;;;;;5080481;28;20038;-78
2023/06/23 02:51:16;;;;;;;18.42;14.10;;;;;;;;;;5082784;28;20107;-76
2023/06/23 02:53:47;;;;;;;16.48;14.25;;;;;;;;;;5082696;28;20016;-76
2023/06/23 02:56:19;;;;;;;14.75;13.15;;;;;;;;;;5081424;28;20367;-78
2023/06/23 02:58:46;;;;;;;16.08;12.52;;;;;;;;;;5079494;28;21200;-75
2023/06/23 03:01:14;;;;;;;13.90;12.43;;;;;;;;;;5082271;28;20036;-76
2023/06/23 03:03:41;;;;;;;13.70;12.15;;;;;;;;;;5077595;28;20351;-76
2023/06/23 03:06:06;;;;;;;14.05;12.60;;;;;;;;;;5082199;28;20065;-76
2023/06/23 03:08:31;;;;;;;13.98;12.32;;;;;;;;;;5080408;28;20476;-74
2023/06/23 03:10:57;;;;;;;14.70;13.23;;;;;;;;;;5082770;28;20811;-76
2023/06/23 03:13:22;;;;;;;16.42;13.63;;;;;;;;;;5079712;28;20474;-76
2023/06/23 03:15:50;;;;;;;13.63;12.20;;;;;;;;;;5080537;28;20036;-78
2023/06/23 03:18:17;;;;;;;14.63;13.13;;;;;;;;;;5078946;28;20032;-75
2023/06/23 03:20:50;;;;;;;18.63;14.00;;;;;;;;;;5078142;28;20035;-74
2023/06/23 03:23:16;;;;;;;20.17;14.30;;;;;;;;;;5077498;28;20127;-77
2023/06/23 03:25:46;;;;;;;16.52;12.95;;;;;;;;;;5079587;28;20039;-75
2023/06/23 03:28:14;;;;;;;15.40;12.65;;;;;;;;;;5078369;28;20102;-76
2023/06/23 03:30:40;;;;;;;18.23;13.98;;;;;;;;;;5078635;28;20027;-74
2023/06/23 03:33:12;;;;;;;17.20;13.55;;;;;;;;;;5079308;28;20066;-76
2023/06/23 03:35:40;;;;;;;16.90;12.32;;;;;;;;;;5076298;28;20035;-74
2023/06/23 03:38:08;;;;;;;22.08;15.25;;;;;;;;;;5080550;28;20020;-74
2023/06/23 03:40:38;;;;;;;34.97;19.05;;;;;;;;;;5080019;28;20077;-73
2023/06/23 03:43:03;;;;;;;;;;;;;;;;;;5079565;28;20028;-74
2023/06/23 03:45:29;;;;;;;24.90;17.80;;;;;;;;;;5081569;28;19912;-76
2023/06/23 03:47:59;;;;;;;23.60;15.93;;;;;;;;;;5080942;28;20027;-74
2023/06/23 03:50:24;;;;;;;;;;;;;;;;;;5080487;28;20584;-73
2023/06/23 03:52:49;;;;;;;15.20;13.57;;;;;;;;;;5078056;28;19923;-76
2023/06/23 03:55:16;;;;;;;19.52;14.35;;;;;;;;;;5077678;28;20256;-74
2023/06/23 03:57:42;;;;;;;13.88;12.27;;;;;;;;;;5076517;28;20044;-74
2023/06/23 04:00:07;;;;;;;13.77;12.38;;;;;;;;;;5075611;28;20044;-75
2023/06/23 04:02:34;;;;;;;14.07;12.70;;;;;;;;;;5078307;28;20031;-73
2023/06/23 04:05:01;;;;;;;15.95;13.82;;;;;;;;;;5081917;28;20130;-77
2023/06/23 04:07:27;;;;;;;14.48;11.73;;;;;;;;;;5078478;28;20101;-74
2023/06/23 04:09:53;;;;;;;15.90;12.70;;;;;;;;;;5078560;28;20032;-74
2023/06/23 04:12:19;;;;;;;14.02;11.95;;;;;;;;;;5076235;28;20024;-73
2023/06/23 04:14:47;;;;;;;15.05;12.95;;;;;;;;;;5080079;28;20028;-74
2023/06/23 04:17:13;;;;;;;14.15;12.40;;;;;;;;;;5078092;28;20050;-74
2023/06/23 04:19:40;;;;;;;19.73;14.70;;;;;;;;;;5081402;28;20078;-75
2023/06/23 04:22:06;;;;;;;20.55;17.65;;;;;;;;;;5078937;28;20431;-77
2023/06/23 04:24:33;;;;;;;19.73;15.55;;;;;;;;;;5080123;28;20085;-74
2023/06/23 04:26:59;;;;;;;18.17;14.90;;;;;;;;;;5081525;28;20024;-73
2023/06/23 04:29:25;;;;;;;15.75;13.93;;;;;;;;;;5078393;28;20027;-79
2023/06/23 04:31:52;;;;;;;15.57;13.70;;;;;;;;;;5079998;28;20398;-75
2023/06/23 04:34:18;;;;;;;14.00;12.35;;;;;;;;;;5078822;28;20421;-75
2023/06/23 04:37:02;;;;;;;15.25;13.65;;;;;;;;;;5079057;28;20023;-76
2023/06/23 04:39:29;;;;;;;14.98;12.93;;;;;;;;;;5078281;28;20206;-78
2023/06/23 04:41:56;;;;;;;15.45;13.70;;;;;;;;;;5079172;28;20015;-78
2023/06/23 04:44:23;;;;;;;17.73;14.43;;;;;;;;;;5077366;28;20443;-75
2023/06/23 04:46:50;;;;;;;15.55;13.95;;;;;;;;;;5080437;28;20056;-77
2023/06/23 04:49:18;;;;;;;15.52;12.93;;;;;;;;;;5076565;28;20028;-75
2023/06/23 04:51:46;;;;;;;16.25;13.68;;;;;;;;;;5078097;28;20412;-78
2023/06/23 04:54:17;;;;;;;14.67;13.03;;;;;;;;;;5080301;28;20023;-74
2023/06/23 04:56:45;;;;;;;14.50;13.05;;;;;;;;;;5080809;28;20028;-76
2023/06/23 04:59:12;;;;;;;14.20;12.73;;;;;;;;;;5080185;28;20052;-76
2023/06/23 05:01:38;;;;;;;15.05;13.63;;;;;;;;;;5074372;28;20058;-75
2023/06/23 05:04:04;;;;;;;15.68;12.52;;;;;;;;;;5079228;28;20051;-75
2023/06/23 05:06:30;;;;;;;14.70;13.20;;;;;;;;;;5076403;28;20070;-75
2023/06/23 05:08:56;;;;;;;14.60;13.13;;;;;;;;;;5080860;28;20457;-78
2023/06/23 05:11:21;;;;;;;13.75;12.38;;;;;;;;;;5065973;28;20024;-78
2023/06/23 05:13:48;;;;;;;15.32;13.38;;;;;;;;;;5078138;28;20403;-76
2023/06/23 05:16:14;;;;;;;13.20;12.00;;;;;;;;;;5079103;28;20036;-76
2023/06/23 05:18:40;;;;;;;13.40;12.00;;;;;;;;;;5079296;28;20073;-76
2023/06/23 05:21:06;;;;;;;13.48;12.07;;;;;;;;;;5077576;28;20390;-75
2023/06/23 05:23:39;;;;;;;13.40;12.10;;;;;;;;;;5078006;28;20024;-77
2023/06/23 05:26:06;;;;;;;14.52;12.85;;;;;;;;;;5079113;28;20054;-77
2023/06/23 05:28:34;;;;;;;14.20;12.77;;;;;;;;;;5081905;28;20040;-76
2023/06/23 05:31:01;;;;;;;14.48;12.40;;;;;;;;;;5081734;28;20645;-73
2023/06/23 05:33:27;;;;;;;14.48;12.35;;;;;;;;;;5081129;28;20073;-75
2023/06/23 05:35:52;;;;;;;13.35;12.15;;;;;;;;;;5081528;28;20028;-77
2023/06/23 05:38:19;;;;;;;12.35;11.18;;;;;;;;;;5081895;28;20048;-75
2023/06/23 05:40:44;;;;;;;13.63;11.82;;;;;;;;;;5081175;28;20410;-73
2023/06/23 05:43:09;;;;;;;14.20;12.48;;;;;;;;;;5081051;28;20029;-78
2023/06/23 05:45:35;;;;;;;15.13;11.70;;;;;;;;;;5080923;28;20088;-74
2023/06/23 05:48:03;;;;;;;14.50;11.50;;;;;;;;;;5082093;28;20027;-74
2023/06/23 05:50:31;;;;;;;12.52;11.23;;;;;;;;;;5080267;28;20028;-76
2023/06/23 05:53:02;;;;;;;20.60;12.63;;;;;;;;;;5081951;28;20455;-76
2023/06/23 05:55:29;;;;;;;14.82;11.50;;;;;;;;;;5082558;28;20272;-76
2023/06/23 05:57:59;;;;;;;15.07;11.63;;;;;;;;;;5080859;28;20359;-74
2023/06/23 06:00:26;;;;;;;13.35;10.38;;;;;;;;;;5082364;28;20035;-75
2023/06/23 06:02:52;;;;;;;15.05;11.30;;;;;;;;;;5081043;28;20439;-74
2023/06/23 06:05:18;;;;;;;12.75;10.77;;;;;;;;;;5082594;28;20435;-74
2023/06/23 06:07:45;;;;;;;16.65;11.63;;;;;;;;;;5082305;28;20140;-77
2023/06/23 06:10:11;;;;;;;13.40;11.32;;;;;;;;;;5083021;28;20032;-74
2023/06/23 06:12:37;;;;;;;18.30;10.90;;;;;;;;;;5081412;28;20103;-75
2023/06/23 06:15:03;;;;;;;12.23;10.77;;;;;;;;;;5082533;28;20431;-75
2023/06/23 06:17:31;;;;;;;13.07;10.77;;;;;;;;;;5081119;28;20039;-74
2023/06/23 06:19:59;;;;;;;15.98;11.23;;;;;;;;;;5075828;28;20123;-75
2023/06/23 06:22:25;;;;;;;13.85;11.50;;;;;;;;;;5083326;28;20031;-76
2023/06/23 06:24:51;;;;;;;13.07;11.60;;;;;;;;;;5081925;28;20575;-77
2023/06/23 06:27:17;;;;;;;14.30;11.65;;;;;;;;;;5084074;28;20028;-74
2023/06/23 06:29:43;;;;;;;13.40;10.52;;;;;;;;;;5082091;28;20092;-74
2023/06/23 06:32:09;;;;;;;11.95;10.75;;;;;;;;;;5083095;28;20020;-75
2023/06/23 06:34:35;;;;;;;14.73;10.80;;;;;;;;;;5083382;28;20022;-75
2023/06/23 06:37:01;;;;;;;14.52;11.02;;;;;;;;;;5078388;28;20086;-76
2023/06/23 06:39:28;;;;;;;11.18;10.10;;;;;;;;;;5079149;28;20035;-75
2023/06/23 06:41:53;;;;;;;12.27;10.88;;;;;;;;;;5079741;28;20029;-75
2023/06/23 06:44:19;;;;;;;12.93;10.63;;;;;;;;;;5081683;28;20397;-74
2023/06/23 06:46:45;;;;;;;11.32;10.23;;;;;;;;;;5081683;28;20117;-75
2023/06/23 06:49:11;;;;;;;12.02;10.80;;;;;;;;;;5082051;28;20041;-75
2023/06/23 06:51:37;;;;;;;14.75;10.43;;;;;;;;;;5079344;28;20064;-74
2023/06/23 06:54:02;;;;;;;11.88;10.00;;;;;;;;;;5079731;28;20418;-75
2023/06/23 06:56:28;;;;;;;12.00;9.07;;;;;;;;;;5078568;28;20027;-81
2023/06/23 06:58:53;;;;;;;12.00;9.98;;;;;;;;;;5078429;28;20450;-76
2023/06/23 07:01:19;;;;;;;12.73;10.30;;;;;;;;;;5082658;28;20074;-75
2023/06/23 07:03:45;;;;;;;11.50;10.00;;;;;;;;;;5077872;28;20493;-76
2023/06/23 07:06:12;;;;;;;11.65;9.85;;;;;;;;;;5079069;28;20226;-76
2023/06/23 07:08:38;;;;;;;12.95;10.82;;;;;;;;;;5075566;28;20039;-75
2023/06/23 07:11:03;;;;;;;14.73;10.23;;;;;;;;;;5077804;28;20020;-75
2023/06/23 07:13:29;;;;;;;14.85;9.25;;;;;;;;;;5081750;28;20035;-76
2023/06/23 07:15:54;;;;;;;10.73;9.35;;;;;;;;;;5082092;28;20044;-77
2023/06/23 07:18:19;;;;;;;16.42;10.23;;;;;;;;;;5080708;28;20032;-75
2023/06/23 07:20:45;;;;;;;10.65;9.18;;;;;;;;;;5081805;28;20811;-76
2023/06/23 07:23:11;;;;;;;13.15;9.48;;;;;;;;;;5081599;28;20040;-75
2023/06/23 07:25:36;;;;;;;12.20;10.02;;;;;;;;;;5081712;28;20043;-76
2023/06/23 07:28:01;;;;;;;15.23;9.40;;;;;;;;;;5081735;28;20028;-74
2023/06/23 07:30:27;;;;;;;12.35;9.57;;;;;;;;;;5079846;28;20031;-76
2023/06/23 07:32:53;;;;;;;11.75;9.73;;;;;;;;;;5081794;28;20042;-78
2023/06/23 07:35:19;;;;;;;11.90;9.43;;;;;;;;;;5081776;28;20034;-75
2023/06/23 07:37:44;;;;;;;9.43;8.20;;;;;;;;;;5081341;28;20028;-77
2023/06/23 07:40:09;;;;;;;13.45;10.10;;;;;;;;;;5078863;28;20024;-76
2023/06/23 07:42:35;;;;;;;12.57;9.00;;;;;;;;;;5080806;28;20028;-77
2023/06/23 07:45:00;;;;;;;12.27;8.75;;;;;;;;;;5079764;28;20047;-76
2023/06/23 07:47:26;;;;;;;9.60;8.55;;;;;;;;;;5080825;28;20036;-76
2023/06/23 07:49:51;;;;;;;10.00;9.02;;;;;;;;;;5080367;28;20708;-77
2023/06/23 07:52:16;;;;;;;9.73;8.38;;;;;;;;;;5081679;28;20378;-76
2023/06/23 07:54:42;;;;;;;12.00;9.27;;;;;;;;;;5079506;28;20455;-76
2023/06/23 07:57:11;;;;;;;9.70;8.70;;;;;;;;;;5079779;28;20370;-76
2023/06/23 07:59:37;;;;;;;10.65;8.30;;;;;;;;;;5079205;28;20048;-76
2023/06/23 08:02:03;;;;;;;9.02;7.70;;;;;;;;;;5078958;28;20028;-77
2023/06/23 08:04:29;;;;;;;8.77;7.82;;;;;;;;;;5078899;28;20107;-77
2023/06/23 08:06:54;;;;;;;10.18;7.93;;;;;;;;;;5080008;28;20150;-77
2023/06/23 08:09:19;;;;;;;9.60;8.45;;;;;;;;;;5079744;28;20075;-76
2023/06/23 08:11:45;;;;;;;12.27;7.30;;;;;;;;;;5079947;28;20777;-75
2023/06/23 08:14:11;;;;;;;8.75;7.65;;;;;;;;;;5079221;28;20032;-75
2023/06/23 08:16:36;;;;;;;12.85;8.27;;;;;;;;;;5077789;28;20470;-77
2023/06/23 08:19:01;;;;;;;9.88;8.70;;;;;;;;;;5081512;28;20020;-75
2023/06/23 08:21:27;;;;;;;9.93;8.07;;;;;;;;;;5080646;28;20039;-75
2023/06/23 08:23:52;;;;;;;9.20;8.02;;;;;;;;;;5080073;28;20034;-76
2023/06/23 08:26:18;;;;;;;13.55;7.47;;;;;;;;;;5081547;28;20032;-76
2023/06/23 08:28:43;;;;;;;9.05;8.15;;;;;;;;;;5079964;28;20107;-77
2023/06/23 08:31:09;;;;;;;8.45;7.65;;;;;;;;;;5081597;28;20035;-75
2023/06/23 08:33:34;;;;;;;8.07;6.93;;;;;;;;;;5079667;28;20443;-78
2023/06/23 08:36:00;;;;;;;9.63;7.88;;;;;;;;;;5080931;28;20123;-74
2023/06/23 08:38:26;;;;;;;9.68;7.45;;;;;;;;;;5078577;28;20020;-77
2023/06/23 08:40:51;;;;;;;9.90;7.30;;;;;;;;;;5081165;28;20016;-74
2023/06/23 08:43:23;;;;;;;7.50;6.72;;;;;;;;;;5080743;28;20111;-76
2023/06/23 08:45:53;;;;;;;9.02;6.93;;;;;;;;;;5079986;28;20023;-79
2023/06/23 08:48:19;;;;;;;8.52;7.07;;;;;;;;;;5077159;28;20553;-76
2023/06/23 08:50:44;;;;;;;8.23;7.18;;;;;;;;;;5077986;28;20024;-77
2023/06/23 08:53:10;;;;;;;11.18;7.50;;;;;;;;;;5078872;28;20035;-76
2023/06/23 08:55:35;;;;;;;8.25;6.90;;;;;;;;;;5080065;28;20064;-78
2023/06/23 08:58:01;;;;;;;7.22;6.57;;;;;;;;;;5076751;28;20182;-76
2023/06/23 09:00:27;;;;;;;8.93;7.30;;;;;;;;;;5078715;28;20802;-77
2023/06/23 09:02:53;;;;;;;9.63;7.18;;;;;;;;;;5081427;28;20406;-77
2023/06/23 09:05:18;;;;;;;7.95;6.78;;;;;;;;;;5078038;28;20449;-77
2023/06/23 09:07:44;;;;;;;8.02;6.68;;;;;;;;;;5082177;28;20043;-77
2023/06/23 09:10:10;;;;;;;8.45;7.22;;;;;;;;;;5084982;28;20034;-76
2023/06/23 09:12:36;;;;;;;7.97;7.20;;;;;;;;;;5083749;28;20028;-77
2023/06/23 09:15:02;;;;;;;8.82;6.75;;;;;;;;;;5084847;28;20127;-77
2023/06/23 09:17:28;;;;;;;7.80;6.68;;;;;;;;;;5085185;28;20040;-77
2023/06/23 09:19:54;;;;;;;15.93;7.22;;;;;;;;;;5081932;28;20024;-77
2023/06/23 09:22:20;;;;;;;8.70;6.53;;;;;;;;;;5083507;28;20135;-77
2023/06/23 09:24:46;;;;;;;10.10;6.82;;;;;;;;;;5082315;28;20119;-77
2023/06/23 09:27:12;;;;;;;6.68;6.00;;;;;;;;;;5082581;28;20036;-76
2023/06/23 09:29:37;;;;;;;7.55;6.72;;;;;;;;;;5084871;28;20186;-76
2023/06/23 09:32:03;;;;;;;9.65;6.65;;;;;;;;;;5082303;28;20434;-75
2023/06/23 09:34:36;;;;;;;11.02;6.13;;;;;;;;;;5079275;28;20028;-77
2023/06/23 09:37:08;;;;;;;13.18;6.82;;;;;;;;;;5081573;28;20123;-76
2023/06/23 09:39:35;;;;;;;8.90;6.88;;;;;;;;;;5083827;28;20024;-76
2023/06/23 09:42:04;;;;;;;10.38;6.03;;;;;;;;;;5084256;28;20038;-76
2023/06/23 09:44:33;;;;;;;7.22;6.47;;;;;;;;;;5084562;28;20348;-78
2023/06/23 09:46:59;;;;;;;8.35;6.68;;;;;;;;;;5084245;28;20076;-79
2023/06/23 09:49:25;;;;;;;7.22;6.60;;;;;;;;;;5082984;28;20038;-76
2023/06/23 09:51:50;;;;;;;7.90;7.10;;;;;;;;;;5082460;28;20020;-77
2023/06/23 09:54:29;;;;;;;9.07;6.53;;;;;;;;;;5083715;28;20370;-78
2023/06/23 09:57:02;;;;;;;7.60;6.13;;;;;;;;;;5084278;28;20457;-76
2023/06/23 09:59:29;;;;;;;8.48;6.43;;;;;;;;;;5084012;28;20051;-77
2023/06/23 10:01:55;;;;;;;7.43;6.53;;;;;;;;;;5085447;28;20043;-78
2023/06/23 10:04:26;;;;;;;8.68;6.50;;;;;;;;;;5083593;28;20028;-77
2023/06/23 10:06:51;;;;;;;9.57;6.53;;;;;;;;;;5083764;28;20035;-77
2023/06/23 10:09:22;;;;;;;7.78;6.70;;;;;;;;;;5081134;28;20300;-79
2023/06/23 10:11:47;;;;;;;6.78;6.05;;;;;;;;;;5079780;28;20038;-78
2023/06/23 10:14:14;;;;;;;7.65;6.07;;;;;;;;;;5081237;28;20346;-78
2023/06/23 10:16:44;;;;;;;8.10;6.30;;;;;;;;;;5080683;28;21166;-79
2023/06/23 10:19:10;;;;;;;9.55;6.47;;;;;;;;;;5081678;28;20016;-76
2023/06/23 10:21:36;;;;;;;6.47;5.88;;;;;;;;;;5083288;28;20027;-77
2023/06/23 10:24:02;;;;;;;6.75;6.07;;;;;;;;;;5080430;28;20028;-80
2023/06/23 10:26:31;;;;;;;7.13;6.30;;;;;;;;;;5081356;28;20055;-79
2023/06/23 10:28:58;;;;;;;6.18;5.65;;;;;;;;;;5082189;28;20119;-78
2023/06/23 10:31:24;;;;;;;7.03;6.32;;;;;;;;;;5080034;28;20128;-77
2023/06/23 10:33:50;;;;;;;9.07;5.78;;;;;;;;;;5082250;28;20111;-79
2023/06/23 10:36:20;;;;;;;6.82;6.00;;;;;;;;;;5082962;28;20124;-77
2023/06/23 10:38:47;;;;;;;6.95;6.25;;;;;;;;;;5079670;28;20093;-79
2023/06/23 10:41:13;;;;;;;7.55;6.43;;;;;;;;;;5081542;28;20039;-76
2023/06/23 10:43:40;;;;;;;6.72;6.18;;;;;;;;;;5077833;28;20358;-79
2023/06/23 10:46:06;;;;;;;8.18;6.18;;;;;;;;;;5082101;28;20035;-77
2023/06/23 10:48:31;;;;;;;8.75;6.35;;;;;;;;;;5082785;28;20025;-78
2023/06/23 10:50:58;;;;;;;8.63;6.53;;;;;;;;;;5081517;28;20047;-79
2023/06/23 10:53:28;;;;;;;8.77;6.50;;;;;;;;;;5079453;28;20035;-76
2023/06/23 10:55:57;;;;;;;6.45;5.75;;;;;;;;;;5081171;28;20046;-77
2023/06/23 10:58:23;;;;;;;7.38;5.43;;;;;;;;;;5082164;28;20765;-79
2023/06/23 11:01:00;;;;;;;6.68;5.85;;;;;;;;;;5079979;28;20463;-79
2023/06/23 11:03:30;;;;;;;10.18;6.22;;;;;;;;;;5070652;28;20028;-77
2023/06/23 11:05:56;;;;;;;8.93;6.35;;;;;;;;;;5075978;28;20111;-77
2023/06/23 11:08:28;;;;;;;7.28;6.15;;;;;;;;;;5071749;28;20028;-80
2023/06/23 11:11:01;;;;;;;7.25;5.90;;;;;;;;;;5081405;28;20032;-80
2023/06/23 11:13:53;;;;;;;8.38;5.85;;;;;;;;;;5081477;28;20028;-79
2023/06/23 11:16:25;;;;;;;9.27;6.22;;;;;;;;;;5080598;28;20075;-80
2023/06/23 11:18:52;;;;;;;8.30;6.13;;;;;;;;;;5080305;28;20081;-81
2023/06/23 11:21:18;;;;;;;6.93;5.90;;;;;;;;;;5082151;28;20020;-80
2023/06/23 11:24:02;;;;;;;9.43;6.43;;;;;;;;;;5081310;28;20051;-79
2023/06/23 11:26:29;;;;;;;8.65;6.18;;;;;;;;;;5081326;28;20342;-78
2023/06/23 11:28:55;;;;;;;10.23;6.03;;;;;;;;;;5080558;28;20516;-79
2023/06/23 11:31:26;;;;;;;7.45;5.82;;;;;;;;;;5081555;28;20043;-81
2023/06/23 11:33:54;;;;;;;9.52;6.32;;;;;;;;;;5082002;28;20435;-78
2023/06/23 11:36:20;;;;;;;;;;;;;;;;;;5082019;28;20109;-80
2023/06/23 11:38:45;;;;;;;9.50;6.03;;;;;;;;;;5081291;28;20359;-79
2023/06/23 11:41:14;;;;;;;6.63;5.80;;;;;;;;;;5079375;28;20024;-79
2023/06/23 11:43:42;;;;;;;10.73;6.63;;;;;;;;;;5081539;28;20036;-80
2023/06/23 11:46:14;;;;;;;6.45;5.70;;;;;;;;;;5081608;28;20047;-80
2023/06/23 11:48:40;;;;;;;8.63;6.22;;;;;;;;;;5082691;28;20462;-79
2023/06/23 11:51:06;;;;;;;9.02;5.85;;;;;;;;;;5079217;28;20024;-80
2023/06/23 11:53:32;;;;;;;8.02;5.65;;;;;;;;;;5080608;28;21466;-80
2023/06/23 11:55:58;;;;;;;7.70;5.65;;;;;;;;;;5080157;28;20062;-77
2023/06/23 11:58:28;;;;;;;6.80;5.95;;;;;;;;;;5077041;28;20048;-81
2023/06/23 12:00:53;;;;;;;6.63;5.57;;;;;;;;;;5081994;28;20053;-79
2023/06/23 12:03:19;;;;;;;8.87;6.20;;;;;;;;;;5080459;28;20024;-77
2023/06/23 12:05:44;;;;;;;8.20;5.70;;;;;;;;;;5080807;28;20257;-78
2023/06/23 12:08:10;;;;;;;8.95;5.75;;;;;;;;;;5080435;28;20085;-79
2023/06/23 12:10:41;;;;;;;8.65;5.68;;;;;;;;;;5082037;28;20042;-78
2023/06/23 12:13:10;;;;;;;9.25;5.75;;;;;;;;;;5079625;28;20052;-77
2023/06/23 12:15:39;;;;;;;7.63;5.25;;;;;;;;;;5079210;28;20027;-78
2023/06/23 12:18:05;;;;;;;8.82;5.43;;;;;;;;;;5078993;28;20028;-81
2023/06/23 12:20:34;;;;;;;10.35;5.95;;;;;;;;;;5078831;28;20327;-81
2023/06/23 12:23:01;;;;;;;8.45;5.65;;;;;;;;;;5078725;28;20038;-78
2023/06/23 12:25:33;;;;;;;6.35;5.30;;;;;;;;;;5079668;28;20016;-79
2023/06/23 12:28:00;;;;;;;17.48;6.07;;;;;;;;;;5080287;28;20035;-76
2023/06/23 12:30:25;;;;;;;7.22;5.45;;;;;;;;;;5079539;28;20032;-79
2023/06/23 12:32:55;;;;;;;8.27;5.50;;;;;;;;;;5080277;28;20157;-79
2023/06/23 12:35:20;;;;;;;7.80;5.78;;;;;;;;;;5079142;28;20034;-79
2023/06/23 12:37:47;;;;;;;8.98;5.35;;;;;;;;;;5081939;28;20367;-77
2023/06/23 12:40:32;;;;;;;5.78;4.82;;;;;;;;;;5081279;28;20047;-81
2023/06/23 12:42:58;;;;;;;7.30;5.95;;;;;;;;;;5084552;28;20647;-77
2023/06/23 12:45:24;;;;;;;10.60;5.45;;;;;;;;;;5084316;28;20600;-79
2023/06/23 12:47:56;;;;;;;6.57;5.13;;;;;;;;;;5082934;28;20028;-80
2023/06/23 12:50:25;;;;;;;10.50;5.28;;;;;;;;;;5084144;28;20119;-78
2023/06/23 12:52:50;;;;;;;7.68;5.30;;;;;;;;;;5085824;28;20336;-78
2023/06/23 12:55:15;;;;;;;10.03;5.67;;;;;;;;;;5081370;28;20043;-79
2023/06/23 12:57:44;;;;;;;9.20;5.57;;;;;;;;;;5085370;28;20297;-79
2023/06/23 13:00:11;;;;;;;7.75;6.00;;;;;;;;;;5084757;28;20557;-77
2023/06/23 13:02:36;;;;;;;8.85;5.68;;;;;;;;;;5085659;28;20023;-79
2023/06/23 13:05:01;;;;;;;6.60;5.90;;;;;;;;;;5079427;28;20019;-79
2023/06/23 13:07:27;;;;;;;6.13;5.50;;;;;;;;;;5083675;28;20259;-79
2023/06/23 13:09:52;;;;;;;8.50;5.97;;;;;;;;;;5084433;28;20019;-78
2023/06/23 13:12:17;;;;;;;8.32;5.97;;;;;;;;;;5084909;28;20110;-79
2023/06/23 13:14:43;;;;;;;9.32;6.03;;;;;;;;;;5083841;28;20024;-80
2023/06/23 13:17:08;;;;;;;8.90;6.07;;;;;;;;;;5081316;28;20067;-81
2023/06/23 13:19:33;;;;;;;7.83;6.37;;;;;;;;;;5083404;28;20371;-79
2023/06/23 13:21:59;;;;;;;7.83;5.60;;;;;;;;;;5083409;28;20347;-76
2023/06/23 13:24:24;;;;;;;7.67;6.10;;;;;;;;;;5083192;28;20347;-79
2023/06/23 13:26:50;;;;;;;8.05;5.97;;;;;;;;;;5083936;28;20319;-77
2023/06/23 13:29:16;;;;;;;6.72;5.25;;;;;;;;;;5082897;28;20335;-79
2023/06/23 13:31:41;;;;;;;6.53;5.82;;;;;;;;;;5080573;28;20058;-78
2023/06/23 13:34:06;;;;;;;10.60;6.17;;;;;;;;;;5084596;28;20488;-78
2023/06/23 13:36:31;;;;;;;8.88;5.65;;;;;;;;;;5081699;28;20284;-79
2023/06/23 13:38:57;;;;;;;7.38;5.78;;;;;;;;;;5082522;28;21100;-79
2023/06/23 13:41:22;;;;;;;6.57;5.88;;;;;;;;;;5082120;28;20035;-77
2023/06/23 13:43:47;;;;;;;8.77;5.90;;;;;;;;;;5083029;28;20502;-79
2023/06/23 13:46:13;;;;;;;7.67;6.27;;;;;;;;;;5078935;28;21037;-79
2023/06/23 13:48:39;;;;;;;8.52;5.93;;;;;;;;;;5082229;28;20724;-79
2023/06/23 13:51:04;;;;;;;8.40;5.78;;;;;;;;;;5083301;28;20028;-77
2023/06/23 13:53:29;;;;;;;11.80;6.10;;;;;;;;;;5077236;28;20024;-76
2023/06/23 13:55:55;;;;;;;7.72;6.22;;;;;;;;;;5083694;28;20357;-80
2023/06/23 13:58:20;;;;;;;7.15;5.70;;;;;;;;;;5082812;28;20097;-80
2023/06/23 14:00:45;;;;;;;6.80;5.90;;;;;;;;;;5082484;28;20616;-79
2023/06/23 14:03:11;;;;;;;10.32;6.30;;;;;;;;;;5082937;28;20119;-79
2023/06/23 14:05:36;;;;;;;6.77;6.17;;;;;;;;;;5083568;28;20088;-79
2023/06/23 14:08:02;;;;;;;7.40;5.80;;;;;;;;;;5082174;28;20602;-80
2023/06/23 14:10:27;;;;;;;8.10;5.93;;;;;;;;;;5081482;28;20244;-79
2023/06/23 14:12:53;;;;;;;8.55;6.00;;;;;;;;;;5082892;28;20032;-77
2023/06/23 14:15:18;;;;;;;10.68;6.40;;;;;;;;;;5082055;28;20024;-77
2023/06/23 14:17:44;;;;;;;11.43;6.60;;;;;;;;;;5078945;28;20039;-78
2023/06/23 14:20:09;;;;;;;11.20;6.07;;;;;;;;;;5082747;28;20012;-78
2023/06/23 14:22:34;;;;;;;7.93;6.68;;;;;;;;;;5081842;28;20040;-77
2023/06/23 14:25:00;;;;;;;7.97;6.45;;;;;;;;;;5082749;28;20035;-80
2023/06/23 14:27:25;;;;;;;7.75;6.57;;;;;;;;;;5079699;28;20031;-79
2023/06/23 14:29:50;;;;;;;8.63;6.32;;;;;;;;;;5082282;28;20019;-78